Time;durP1;ratioP1;P1;durP2;ratioP2;P2;SDS_P1;SDS_P2;PMS_P1;PMS_P2;Temp;Humidity;BMP_temperature;BMP_pressure;BME280_temperature;BME280_humidity;BME280_pressure;Samples;Min_cycle;Max_cycle;Signal;HPM_P1;HPM_P2
2022/03/27 00:03:09;;;;;;;5.67;2.62;;;;;;;10.27;34.37;101365.47;1958731;99;25714;-76
2022/03/27 00:06:40;;;;;;;5.30;2.50;;;;;;;10.29;34.42;101372.92;1958842;99;25787;-77
2022/03/27 00:10:01;;;;;;;5.85;3.15;;;;;;;10.26;34.49;101370.19;1958177;99;25735;-77
2022/03/27 00:13:22;;;;;;;8.70;2.87;;;;;;;10.20;34.52;101378.63;1954014;97;26202;-78
2022/03/27 00:16:43;;;;;;;5.85;3.27;;;;;;;10.14;34.59;101373.16;1987652;97;25608;-76
2022/03/27 00:20:32;;;;;;;5.30;2.90;;;;;;;10.12;34.71;101378.70;1988065;98;29056;-76
2022/03/27 00:23:56;;;;;;;4.22;2.75;;;;;;;10.10;34.70;101381.27;2012527;96;25815;-78
2022/03/27 00:27:17;;;;;;;7.37;3.02;;;;;;;10.06;34.81;101377.18;2016901;96;26520;-78
2022/03/27 00:30:59;;;;;;;;;;;;;;;;;;;;;
2022/03/27 00:34:21;;;;;;;6.33;2.83;;;;;;;10.01;34.88;101376.08;2058672;94;25767;-78
2022/03/27 00:37:46;;;;;;;4.50;2.75;;;;;;;9.96;34.89;101371.11;2094904;91;25858;-80
2022/03/27 00:41:08;;;;;;;4.00;2.08;;;;;;;9.92;34.89;101372.28;2185485;86;25697;-77
2022/03/27 00:44:41;;;;;;;6.85;2.83;;;;;;;9.90;34.87;101367.41;2317524;83;25539;-78
2022/03/27 00:48:26;;;;;;;6.12;3.65;;;;;;;9.86;34.90;101365.92;2320600;83;25619;-79
2022/03/27 00:51:55;;;;;;;5.35;3.55;;;;;;;9.79;34.88;101366.08;2277798;86;25624;-77
2022/03/27 00:55:24;;;;;;;5.50;2.98;;;;;;;9.77;34.94;101374.64;2293547;84;25798;-77
2022/03/27 00:58:50;;;;;;;5.40;2.35;;;;;;;9.73;34.94;101373.63;2284360;85;25688;-77
2022/03/27 01:02:15;;;;;;;4.25;2.20;;;;;;;9.70;34.91;101365.67;2302438;85;25687;-77
2022/03/27 01:05:37;;;;;;;11.97;3.60;;;;;;;9.67;34.92;101372.05;2292385;85;25718;-75
2022/03/27 01:17:09;;;;;;;5.62;2.35;;;;;;;9.51;35.09;101376.99;2183373;89;25783;-78
2022/03/27 01:20:54;;;;;;;4.80;2.42;;;;;;;9.51;35.09;101376.11;2093608;92;25834;-75
2022/03/27 01:24:32;;;;;;;4.60;2.17;;;;;;;9.48;35.16;101372.06;2112416;92;25801;-80
2022/03/27 01:27:56;;;;;;;4.40;2.12;;;;;;;9.45;35.17;101372.84;2112194;92;25285;-77
2022/03/27 01:31:19;;;;;;;4.12;1.80;;;;;;;9.45;35.19;101372.84;2112754;93;25730;-78
2022/03/27 01:34:49;;;;;;;4.72;1.70;;;;;;;9.42;35.26;101376.61;2112277;92;25920;-77
2022/03/27 01:38:41;;;;;;;5.28;2.17;;;;;;;9.38;35.30;101381.17;2092939;93;26037;-79
2022/03/27 01:42:06;;;;;;;6.97;2.90;;;;;;;9.36;35.36;101375.03;2112600;92;25726;-78
2022/03/27 01:45:29;;;;;;;7.33;1.77;;;;;;;9.35;35.40;101380.66;2125188;88;25484;-76
2022/03/27 01:48:49;;;;;;;7.00;2.37;;;;;;;9.34;35.46;101378.85;2241786;87;26166;-75
2022/03/27 01:52:28;;;;;;;5.95;2.12;;;;;;;9.29;35.46;101376.47;2244298;87;25723;-76
2022/03/27 01:55:53;;;;;;;7.28;2.40;;;;;;;9.27;35.54;101382.01;2221253;88;25751;-79
2022/03/27 01:59:22;;;;;;;4.83;2.75;;;;;;;9.21;35.63;101380.05;2233343;87;25656;-78
2022/03/27 02:02:43;;;;;;;5.90;2.50;;;;;;;9.17;35.66;101383.72;2237365;87;25667;-79
2022/03/27 02:06:19;;;;;;;5.45;2.92;;;;;;;9.12;35.77;101396.53;2238656;87;25580;-79
2022/03/27 02:09:52;;;;;;;8.50;1.90;;;;;;;9.11;35.81;101387.33;2244230;87;25605;-75
2022/03/27 02:13:22;;;;;;;4.20;2.83;;;;;;;9.06;35.83;101398.84;2221654;85;25632;-79
2022/03/27 02:16:46;;;;;;;4.10;2.30;;;;;;;9.03;35.93;101405.61;2278982;84;25727;-77
2022/03/27 02:20:10;;;;;;;5.57;2.03;;;;;;;8.99;35.95;101405.88;2280257;86;25837;-77
2022/03/27 02:23:39;;;;;;;5.70;2.80;;;;;;;8.96;35.99;101415.73;2312874;84;25641;-76
2022/03/27 02:27:00;;;;;;;4.75;2.45;;;;;;;8.91;36.05;101412.04;2296193;85;25509;-78
2022/03/27 02:30:30;;;;;;;3.05;2.72;;;;;;;8.88;36.12;101418.40;2298416;82;25645;-79
2022/03/27 02:33:57;;;;;;;3.60;2.45;;;;;;;8.88;36.15;101421.00;2297071;84;25808;-77
2022/03/27 02:37:36;;;;;;;3.60;2.30;;;;;;;8.84;36.21;101414.26;2305954;85;25623;-75
2022/03/27 02:41:06;;;;;;;5.03;2.55;;;;;;;8.78;36.32;101418.78;2206160;89;25861;-77
2022/03/27 02:44:48;;;;;;;3.92;2.67;;;;;;;8.77;36.35;101414.79;2195673;88;25687;-79
2022/03/27 02:48:14;;;;;;;9.33;2.80;;;;;;;8.72;36.43;101429.77;2188716;89;25768;-79
2022/03/27 02:51:46;;;;;;;4.75;2.47;;;;;;;8.68;36.46;101438.25;2183377;90;25815;-79
2022/03/27 02:55:19;;;;;;;5.15;2.62;;;;;;;8.64;36.54;101443.20;2181291;90;25624;-75
2022/03/27 03:03:55;;;;;;;7.12;2.92;;;;;;;8.56;36.66;101448.45;2033932;96;25941;-77
2022/03/27 03:07:33;;;;;;;7.33;2.45;;;;;;;8.50;36.76;101446.44;1939756;99;25858;-75
2022/03/27 03:11:13;;;;;;;;;;;;;;;;;;;;;
2022/03/27 03:14:44;;;;;;;5.35;2.27;;;;;;;8.43;36.90;101438.75;1906831;100;26006;-74
2022/03/27 03:18:11;;;;;;;6.60;2.50;;;;;;;8.40;36.98;101452.00;1873751;105;25894;-74
2022/03/27 03:22:09;;;;;;;6.25;2.50;;;;;;;8.34;37.05;101448.68;1859213;105;25930;-77
2022/03/27 03:25:34;;;;;;;10.05;2.27;;;;;;;8.35;37.09;101450.45;1824385;106;25882;-75
2022/03/27 03:28:58;;;;;;;3.83;2.00;;;;;;;8.31;37.17;101452.83;1803822;106;25860;-78
2022/03/27 03:32:35;;;;;;;10.53;2.72;;;;;;;8.28;37.22;101462.24;1814626;106;25934;-75
2022/03/27 03:36:01;;;;;;;3.60;2.17;;;;;;;8.26;37.24;101455.17;1834930;103;25856;-76
2022/03/27 03:39:35;;;;;;;4.92;2.52;;;;;;;8.20;37.26;101454.48;1900526;101;26016;-78
2022/03/27 03:42:56;;;;;;;3.85;2.12;;;;;;;8.18;37.37;101465.61;1935519;99;25977;-75
2022/03/27 03:46:16;;;;;;;6.20;2.30;;;;;;;8.15;37.39;101468.94;1999282;95;27192;-74
2022/03/27 03:49:41;;;;;;;4.80;2.70;;;;;;;8.12;37.49;101476.98;2057213;93;26448;-75
2022/03/27 03:53:05;;;;;;;4.03;1.98;;;;;;;8.10;37.51;101479.89;2057622;93;26188;-75
2022/03/27 03:56:35;;;;;;;8.70;2.58;;;;;;;8.08;37.55;101483.72;2053469;95;25705;-76
2022/03/27 03:59:56;;;;;;;5.58;2.08;;;;;;;8.06;37.60;101484.04;2109963;89;25757;-75
2022/03/27 04:03:17;;;;;;;4.37;2.27;;;;;;;8.04;37.62;101489.58;2131448;91;26292;-75
2022/03/27 04:06:37;;;;;;;4.12;2.17;;;;;;;8.03;37.67;101492.97;2123589;92;25701;-74
2022/03/27 04:09:58;;;;;;;5.80;2.08;;;;;;;7.97;37.73;101494.87;2124653;92;25374;-75
2022/03/27 04:13:28;;;;;;;3.42;2.10;;;;;;;7.94;37.77;101486.91;2138661;87;25854;-74
2022/03/27 04:17:00;;;;;;;5.03;2.37;;;;;;;7.93;37.79;101492.01;2229213;87;25820;-74
2022/03/27 04:20:23;;;;;;;3.27;2.42;;;;;;;7.91;37.85;101494.95;2200959;88;25777;-79
2022/03/27 04:23:51;;;;;;;5.20;2.40;;;;;;;7.90;37.91;101505.75;2206650;87;27240;-76
2022/03/27 04:27:27;;;;;;;3.42;2.02;;;;;;;7.89;37.95;101502.64;2069814;94;25916;-76
2022/03/27 04:30:50;;;;;;;3.45;1.57;;;;;;;7.88;37.99;101511.25;2097736;93;26034;-75
2022/03/27 04:34:11;;;;;;;5.25;1.80;;;;;;;7.88;38.09;101509.95;2078193;92;25482;-75
2022/03/27 04:37:36;;;;;;;4.13;2.23;;;;;;;7.88;38.11;101511.25;2193776;89;25678;-76
2022/03/27 04:41:06;;;;;;;6.03;2.70;;;;;;;7.88;38.15;101519.05;2212558;89;25864;-76
2022/03/27 04:44:30;;;;;;;4.17;2.30;;;;;;;7.87;38.17;101510.78;2212802;89;26135;-75
2022/03/27 04:47:53;;;;;;;2.87;1.80;;;;;;;7.87;38.25;101515.97;2213421;88;25741;-77
2022/03/27 04:51:16;;;;;;;2.87;1.52;;;;;;;7.89;38.27;101516.92;2213367;88;25538;-75
2022/03/27 04:54:45;;;;;;;4.25;1.98;;;;;;;7.90;38.31;101530.83;2207762;88;25849;-76
2022/03/27 04:58:12;;;;;;;3.85;1.85;;;;;;;7.90;38.35;101541.21;2117317;92;25737;-74
2022/03/27 05:01:36;;;;;;;4.58;2.05;;;;;;;7.92;38.39;101541.75;2115455;93;25736;-74
2022/03/27 05:05:15;;;;;;;;;;;;;;;;;;;;;
2022/03/27 05:08:30;;;;;;;4.87;2.10;;;;;;;7.94;38.49;101536.25;2115241;91;26181;-77
2022/03/27 05:11:57;;;;;;;8.43;1.70;;;;;;;7.97;38.54;101548.52;2116881;93;26137;-77
2022/03/27 05:15:20;;;;;;;3.65;2.02;;;;;;;8.03;38.60;101552.70;2116675;92;25741;-75
2022/03/27 05:18:47;;;;;;;2.98;1.30;;;;;;;8.07;38.61;101557.27;2097222;93;25468;-77
2022/03/27 05:22:16;;;;;;;3.83;1.75;;;;;;;8.10;38.63;101551.31;2121405;92;25746;-78
2022/03/27 05:25:45;;;;;;;3.15;1.30;;;;;;;8.11;38.71;101568.71;2140130;92;26426;-75
2022/03/27 05:29:08;;;;;;;;;;;;;;;8.15;38.76;101579.74;2138766;91;25739;-75
2022/03/27 05:32:29;;;;;;;6.92;1.80;;;;;;;8.17;38.79;101586.81;2140713;92;25665;-78
2022/03/27 05:35:50;;;;;;;4.80;1.83;;;;;;;8.19;38.87;101585.58;2235196;85;25255;-76
2022/03/27 05:39:15;;;;;;;4.80;1.60;;;;;;;8.24;38.92;101593.22;2265487;85;25592;-75
2022/03/27 05:42:39;;;;;;;4.58;2.70;;;;;;;8.26;38.91;101583.38;2289982;85;25191;-77
2022/03/27 05:46:12;;;;;;;4.42;2.02;;;;;;;8.32;38.99;101590.60;2309110;85;25731;-75
2022/03/27 05:49:39;;;;;;;1.42;0.98;;;;;;;8.39;39.04;101581.45;2302943;82;25745;-77
2022/03/27 05:53:12;;;;;;;7.62;2.00;;;;;;;8.46;39.03;101587.03;2237449;86;25704;-79
2022/03/27 05:56:58;;;;;;;3.20;1.52;;;;;;;8.67;39.05;101601.94;2237236;86;25766;-79
2022/03/27 06:00:56;;;;;;;3.05;1.55;;;;;;;8.67;39.05;101601.94;2190287;88;25748;-79
2022/03/27 06:04:19;;;;;;;3.95;1.60;;;;;;;8.81;39.05;101610.44;2172414;89;25795;-77
2022/03/27 06:11:34;;;;;;;5.17;1.67;;;;;;;9.17;38.75;101608.77;2096254;92;25532;-76
2022/03/27 06:15:14;;;;;;;2.80;1.32;;;;;;;9.34;38.57;101616.98;2099216;94;25756;-79
2022/03/27 06:19:14;;;;;;;3.35;1.57;;;;;;;9.49;38.44;101618.15;2121188;91;25743;-79
2022/03/27 06:22:53;;;;;;;2.50;1.52;;;;;;;9.58;38.31;101627.67;2121668;91;25571;-79
2022/03/27 06:27:08;;;;;;;3.87;1.57;;;;;;;9.65;38.16;101633.69;2121898;91;25773;-77
2022/03/27 06:30:49;;;;;;;4.85;1.60;;;;;;;9.70;37.88;101642.59;2027201;96;25832;-76
2022/03/27 06:34:34;;;;;;;;;;;;;;;;;;;;;
2022/03/27 06:38:01;;;;;;;2.62;1.22;;;;;;;9.79;37.61;101644.75;2023939;96;26510;-77
2022/03/27 06:41:35;;;;;;;3.00;1.82;;;;;;;9.82;37.36;101639.69;2024114;97;25789;-79
2022/03/27 06:45:10;;;;;;;3.05;1.52;;;;;;;9.87;37.13;101644.69;2022446;97;25544;-79
2022/03/27 06:48:39;;;;;;;6.75;1.10;;;;;;;9.92;36.83;101650.09;2023972;97;25870;-75
2022/03/27 06:52:09;;;;;;;;;;;;;;;10.01;36.50;101647.04;2025934;97;26546;-78
2022/03/27 06:55:34;;;;;;;3.33;1.05;;;;;;;10.13;36.18;101661.53;2023055;96;25941;-77
2022/03/27 06:58:58;;;;;;;2.65;1.00;;;;;;;10.26;35.98;101651.67;2034973;93;25950;-78
2022/03/27 07:06:24;;;;;;;1.77;1.00;;;;;;;10.63;35.18;101656.80;2198707;90;25286;-77
2022/03/27 07:09:53;;;;;;;3.50;1.20;;;;;;;10.89;34.80;101664.46;2306706;83;25677;-78
2022/03/27 07:13:27;;;;;;;6.23;1.47;;;;;;;11.15;34.32;101679.92;2308826;85;25691;-75
2022/03/27 07:16:51;;;;;;;4.10;1.45;;;;;;;11.42;33.90;101673.65;2063403;91;25726;-74
2022/03/27 07:20:46;;;;;;;2.72;1.22;;;;;;;11.80;33.38;101680.81;2054115;93;25921;-76
2022/03/27 07:24:11;;;;;;;2.80;1.40;;;;;;;13.36;32.45;101679.09;2060193;93;26182;-75
2022/03/27 07:27:52;;;;;;;3.08;1.60;;;;;;;16.79;30.01;101689.44;2054557;93;25924;-76
2022/03/27 07:31:27;;;;;;;4.58;1.87;;;;;;;19.16;27.63;101691.95;2052066;93;25962;-75
2022/03/27 07:34:46;;;;;;;5.03;1.30;;;;;;;20.47;25.99;101701.67;2048886;93;25702;-77
2022/03/27 07:38:10;;;;;;;2.25;1.20;;;;;;;22.26;24.47;101704.45;2059957;93;25346;-76
2022/03/27 07:41:33;;;;;;;1.90;1.20;;;;;;;23.95;23.16;101711.30;2055185;93;25873;-76
2022/03/27 07:44:57;;;;;;;4.08;1.10;;;;;;;25.73;21.66;101715.03;2056895;93;25775;-79
2022/03/27 07:48:29;;;;;;;2.05;1.37;;;;;;;27.11;20.49;101716.22;2056742;93;25840;-77
2022/03/27 07:51:49;;;;;;;2.35;1.57;;;;;;;28.32;19.42;101722.92;2058996;93;25775;-76
2022/03/27 07:55:32;;;;;;;2.70;1.20;;;;;;;29.11;18.70;101723.20;2055741;93;25695;-76
2022/03/27 07:58:53;;;;;;;1.92;1.40;;;;;;;30.40;17.72;101735.34;2051085;93;25673;-77
2022/03/27 08:02:31;;;;;;;3.10;1.07;;;;;;;31.61;16.71;101739.94;2056702;93;25386;-78
2022/03/27 08:05:56;;;;;;;1.87;1.20;;;;;;;32.59;15.95;101733.75;2050972;93;25808;-78
2022/03/27 08:09:22;;;;;;;1.20;0.90;;;;;;;33.44;15.84;101738.61;2035115;94;25739;-80
2022/03/27 08:12:50;;;;;;;3.00;1.00;;;;;;;34.30;15.71;101734.16;2094253;89;25833;-78
2022/03/27 08:16:29;;;;;;;2.25;1.20;;;;;;;35.14;15.82;101732.65;2183836;89;25670;-79
2022/03/27 08:19:55;;;;;;;0.98;0.85;;;;;;;36.06;15.89;101725.30;2232901;85;25718;-80
2022/03/27 08:23:23;;;;;;;1.45;1.10;;;;;;;36.82;15.80;101720.00;2285436;85;25738;-80
2022/03/27 08:26:59;;;;;;;0.93;0.70;;;;;;;37.34;15.61;101731.01;2279139;85;25784;-79
2022/03/27 08:30:47;;;;;;;1.47;0.78;;;;;;;37.58;15.53;101739.37;2283936;85;25721;-80
2022/03/27 08:34:08;;;;;;;1.20;0.85;;;;;;;37.99;15.52;101751.97;2227573;88;25770;-75
2022/03/27 08:41:51;;;;;;;1.62;0.70;;;;;;;38.77;14.23;101744.09;1992787;98;25659;-77
2022/03/27 08:45:31;;;;;;;1.02;0.80;;;;;;;39.43;13.73;101754.19;1887753;103;25843;-75
2022/03/27 08:48:51;;;;;;;0.80;0.60;;;;;;;39.82;13.28;101759.78;1825249;106;26096;-77
2022/03/27 08:52:42;;;;;;;1.00;0.82;;;;;;;40.12;13.15;101761.08;1802233;108;26194;-77
2022/03/27 08:56:10;;;;;;;1.72;0.70;;;;;;;39.84;12.83;101759.67;1814980;105;26247;-77
2022/03/27 08:59:38;;;;;;;0.93;0.50;;;;;;;38.39;12.97;101760.05;1784045;109;25923;-76
2022/03/27 09:03:05;;;;;;;1.35;0.70;;;;;;;37.29;13.43;101753.55;1769929;109;25919;-78
2022/03/27 09:06:26;;;;;;;0.85;0.80;;;;;;;36.23;13.75;101745.09;1770005;109;31363;-77
2022/03/27 09:09:46;;;;;;;1.40;0.72;;;;;;;35.37;14.00;101741.66;1802982;105;25830;-77
2022/03/27 09:13:22;;;;;;;1.57;0.70;;;;;;;34.70;14.34;101736.05;1858999;104;26472;-80
2022/03/27 09:17:20;;;;;;;0.55;0.50;;;;;;;34.72;14.49;101738.17;1946746;96;25972;-76
2022/03/27 09:20:55;;;;;;;0.95;0.82;;;;;;;35.32;14.53;101738.81;1953936;96;26026;-78
2022/03/27 09:24:17;;;;;;;1.57;0.70;;;;;;;36.33;14.35;101728.11;1961247;99;25919;-76
2022/03/27 09:27:45;;;;;;;2.98;0.70;;;;;;;37.13;14.19;101735.66;1939487;100;25791;-77
2022/03/27 09:35:21;;;;;;;1.75;0.65;;;;;;;38.03;13.79;101747.17;1888686;103;25877;-77
2022/03/27 09:39:28;;;;;;;0.95;0.70;;;;;;;38.31;13.51;101753.36;1853849;106;25947;-77
2022/03/27 09:42:57;;;;;;;1.12;0.70;;;;;;;38.33;13.40;101750.91;1896615;104;25910;-76
2022/03/27 09:46:32;;;;;;;1.02;0.60;;;;;;;38.32;13.25;101749.68;1907866;102;26087;-78
2022/03/27 09:50:12;;;;;;;1.12;0.85;;;;;;;38.38;13.11;101744.69;1908634;99;26018;-77
2022/03/27 09:53:41;;;;;;;0.62;0.60;;;;;;;38.62;13.18;101742.52;2082220;92;25677;-78
2022/03/27 09:57:15;;;;;;;1.55;0.70;;;;;;;39.07;12.99;101742.82;2068159;93;25827;-78
2022/03/27 10:00:41;;;;;;;0.93;0.60;;;;;;;39.48;12.80;101744.27;2149031;89;25677;-78
2022/03/27 10:04:14;;;;;;;1.98;0.72;;;;;;;39.80;12.62;101739.94;2147759;89;25864;-76
2022/03/27 10:07:56;;;;;;;0.98;0.60;;;;;;;40.12;12.38;101743.32;2141373;92;26115;-77
2022/03/27 10:11:27;;;;;;;1.70;0.90;;;;;;;40.19;12.60;101732.30;2124106;91;25725;-76
2022/03/27 10:15:03;;;;;;;3.85;0.90;;;;;;;40.33;12.89;101716.15;2127744;89;25895;-76
2022/03/27 10:18:43;;;;;;;1.65;0.82;;;;;;;40.39;13.05;101714.28;2022851;95;25855;-76
2022/03/27 10:22:21;;;;;;;;;;;;;;;;;;;;;
2022/03/27 10:25:47;;;;;;;1.55;0.68;;;;;;;38.64;9.70;101690.97;2020474;95;25795;-72
2022/03/27 10:29:28;;;;;;;;;;;;;;;;;;;;;
2022/03/27 10:32:54;;;;;;;4.35;1.20;;;;;;;37.20;9.22;101667.67;2012060;95;25721;-76
2022/03/27 10:37:07;;;;;;;0.85;0.72;;;;;;;36.80;9.36;101665.75;2040262;94;25462;-73
2022/03/27 10:41:13;;;;;;;3.52;1.37;;;;;;;36.39;9.06;101663.89;2034246;95;25919;-73
2022/03/27 10:44:57;;;;;;;1.92;1.02;;;;;;;36.30;9.43;101675.34;2038176;96;25801;-74
2022/03/27 10:48:24;;;;;;;1.82;0.90;;;;;;;36.18;9.28;101666.16;2048075;93;25398;-73
2022/03/27 10:55:54;;;;;;;1.05;0.70;;;;;;;35.35;9.11;101663.58;2076772;93;25827;-73
2022/03/27 10:59:43;;;;;;;4.40;0.70;;;;;;;35.03;9.17;101664.63;2094195;93;25479;-74
2022/03/27 11:03:04;;;;;;;1.45;0.75;;;;;;;34.67;9.21;101662.59;2097755;93;25869;-73
2022/03/27 11:06:43;;;;;;;1.30;0.90;;;;;;;34.28;9.26;101654.84;2099812;92;25755;-73
2022/03/27 11:10:54;;;;;;;2.05;1.02;;;;;;;34.09;9.28;101660.42;2101535;93;26510;-73
2022/03/27 11:18:16;;;;;;;1.25;0.70;;;;;;;33.82;9.72;101650.59;2093496;93;25694;-72
2022/03/27 11:22:01;;;;;;;1.65;0.80;;;;;;;33.67;9.72;101647.34;2095348;93;25722;-73
2022/03/27 11:25:49;;;;;;;0.82;0.60;;;;;;;33.59;9.69;101647.77;2045914;94;25914;-74
2022/03/27 11:29:33;;;;;;;4.08;0.68;;;;;;;33.53;9.58;101640.84;2075575;93;25300;-75
2022/03/27 11:33:36;;;;;;;;;;;;;;;;;;;;;
2022/03/27 11:37:31;;;;;;;1.37;0.80;;;;;;;33.47;9.53;101623.55;2069528;93;25742;-73
2022/03/27 11:40:58;;;;;;;2.67;0.75;;;;;;;33.38;10.00;101610.05;2073630;93;25731;-74
2022/03/27 11:48:24;;;;;;;2.60;0.98;;;;;;;33.28;9.75;101603.87;2100611;88;25791;-74
2022/03/27 11:52:24;;;;;;;4.65;1.40;;;;;;;33.17;9.82;101601.70;2135084;91;25669;-74
2022/03/27 11:56:14;;;;;;;3.30;1.17;;;;;;;33.04;9.68;101595.17;2140907;90;25784;-73
2022/03/27 11:59:53;;;;;;;4.53;1.60;;;;;;;32.69;9.49;101595.11;2085528;93;25696;-73
2022/03/27 12:03:28;;;;;;;2.42;1.20;;;;;;;32.56;9.71;101589.44;2202278;88;25674;-73
2022/03/27 12:07:13;;;;;;;1.17;0.90;;;;;;;32.49;9.94;101592.53;2237248;88;25736;-72
2022/03/27 12:11:20;;;;;;;2.85;0.68;;;;;;;32.63;10.00;101588.18;2202784;89;25783;-73
2022/03/27 12:15:05;;;;;;;2.75;0.70;;;;;;;32.60;9.86;101588.81;2199370;88;25764;-73
2022/03/27 12:18:55;;;;;;;3.52;0.70;;;;;;;32.30;9.91;101583.05;2202623;89;25732;-73
2022/03/27 12:22:45;;;;;;;1.72;0.93;;;;;;;32.11;10.07;101581.73;2182672;89;25712;-72
2022/03/27 12:30:12;;;;;;;3.45;0.70;;;;;;;31.75;10.33;101556.37;2202555;89;25304;-73
2022/03/27 12:33:40;;;;;;;3.45;0.80;;;;;;;31.68;10.63;101556.73;2202765;89;25765;-73
2022/03/27 12:37:38;;;;;;;3.50;0.88;;;;;;;31.59;10.62;101559.39;2226500;87;25762;-72
2022/03/27 12:41:08;;;;;;;2.02;1.00;;;;;;;31.59;10.51;101551.31;2245676;83;25778;-73
2022/03/27 12:45:11;;;;;;;1.92;0.80;;;;;;;31.48;10.45;101548.20;2245362;86;25769;-73
2022/03/27 12:48:35;;;;;;;2.08;1.00;;;;;;;31.42;10.50;101557.47;2198634;88;26091;-73
2022/03/27 12:51:57;;;;;;;0.88;0.70;;;;;;;31.23;10.52;101541.20;2223734;88;25754;-73
2022/03/27 12:55:29;;;;;;;2.20;1.00;;;;;;;31.14;10.46;101543.42;2205107;88;25908;-73
2022/03/27 12:59:04;;;;;;;2.25;1.10;;;;;;;31.05;10.53;101544.23;2109099;91;26002;-74
2022/03/27 13:02:36;;;;;;;1.00;0.65;;;;;;;31.08;10.70;101530.22;2085382;92;25787;-73
2022/03/27 13:06:10;;;;;;;0.88;0.75;;;;;;;30.96;10.69;101528.95;1972593;97;25479;-75
2022/03/27 13:09:38;;;;;;;;;;;;;;;30.61;10.82;101524.54;1954464;99;25390;-72
2022/03/27 13:13:13;;;;;;;1.77;1.10;;;;;;;30.64;10.79;101513.65;1953724;99;25901;-72
2022/03/27 13:16:58;;;;;;;4.50;0.82;;;;;;;30.55;10.88;101501.47;1958351;98;25803;-72
2022/03/27 13:20:39;;;;;;;1.90;0.75;;;;;;;30.36;10.90;101495.09;2019926;96;25857;-75
2022/03/27 13:24:48;;;;;;;4.33;1.20;;;;;;;30.08;10.96;101490.81;2009347;96;25908;-74
2022/03/27 13:28:10;;;;;;;2.15;1.12;;;;;;;29.85;10.99;101480.10;2021957;96;25797;-73
2022/03/27 13:32:16;;;;;;;5.17;0.85;;;;;;;29.67;11.10;101483.48;1939211;101;25789;-72
2022/03/27 13:35:46;;;;;;;2.67;0.85;;;;;;;29.30;11.14;101467.42;1965838;97;25744;-72
2022/03/27 13:39:20;;;;;;;1.32;1.00;;;;;;;28.74;11.46;101465.80;2002028;98;25835;-72
2022/03/27 13:43:02;;;;;;;10.00;0.90;;;;;;;28.36;11.47;101457.22;2044977;93;25774;-72
2022/03/27 13:46:29;;;;;;;;;;;;;;;27.80;11.48;101444.30;2095272;93;26278;-72
2022/03/27 13:50:01;;;;;;;6.20;0.90;;;;;;;27.04;11.53;101436.23;2062312;94;25797;-72
2022/03/27 13:53:15;;;;;;;2.08;1.05;;;;;;;26.21;11.82;101404.94;2075307;92;25788;-73
2022/03/27 13:56:39;;;;;;;2.05;0.80;;;;;;;25.96;12.04;101444.75;2063769;93;25778;-73
2022/03/27 14:00:16;;;;;;;1.98;1.02;;;;;;;25.66;12.36;101440.95;2055487;94;25788;-74
2022/03/27 14:03:46;;;;;;;1.67;0.90;;;;;;;25.27;12.51;101438.20;2136886;91;26424;-75
2022/03/27 14:07:10;;;;;;;6.42;1.80;;;;;;;24.93;12.73;101439.30;2150113;89;25911;-73
2022/03/27 14:10:41;;;;;;;4.28;0.85;;;;;;;24.89;12.87;101434.48;2154979;90;25872;-74
2022/03/27 14:14:00;;;;;;;3.42;1.12;;;;;;;25.14;12.98;101429.59;2143176;91;25799;-72
2022/03/27 14:17:21;;;;;;;3.25;1.20;;;;;;;25.53;12.96;101425.65;2147599;89;25802;-75
2022/03/27 14:20:43;;;;;;;4.05;0.78;;;;;;;25.70;12.99;101417.27;2191168;89;25772;-73
2022/03/27 14:24:06;;;;;;;1.25;0.95;;;;;;;25.64;12.82;101405.38;2189941;90;25733;-79
2022/03/27 14:27:29;;;;;;;2.47;1.25;;;;;;;25.58;13.47;101401.50;2246150;84;26409;-73
2022/03/27 14:30:50;;;;;;;2.37;0.95;;;;;;;25.59;13.79;101401.95;2289314;84;25758;-77
2022/03/27 14:34:20;;;;;;;3.00;0.80;;;;;;;25.36;13.35;101400.65;2307656;84;25809;-78
2022/03/27 14:37:44;;;;;;;3.17;1.00;;;;;;;25.04;13.41;101392.39;2276317;86;25699;-74
2022/03/27 14:41:10;;;;;;;1.72;1.15;;;;;;;24.85;13.62;101385.23;2278130;85;25739;-72
2022/03/27 14:44:33;;;;;;;3.12;1.12;;;;;;;24.71;13.88;101374.38;2261837;86;26002;-72
2022/03/27 14:47:55;;;;;;;1.57;1.07;;;;;;;24.39;13.76;101372.71;2278821;86;25699;-75
2022/03/27 14:51:22;;;;;;;3.50;1.00;;;;;;;24.06;13.83;101362.17;2272320;86;25825;-72
2022/03/27 14:58:52;;;;;;;2.10;1.00;;;;;;;23.16;14.01;101351.94;2262812;86;25627;-72
2022/03/27 15:02:26;;;;;;;1.62;1.07;;;;;;;22.69;14.21;101344.05;2263688;86;25653;-74
2022/03/27 15:05:59;;;;;;;9.68;1.02;;;;;;;22.21;14.44;101337.44;2271563;86;25654;-72
2022/03/27 15:09:29;;;;;;;4.65;1.15;;;;;;;21.83;14.67;101330.20;2252929;86;26186;-72
2022/03/27 15:13:00;;;;;;;3.15;1.25;;;;;;;21.52;15.05;101321.58;2252094;86;25719;-75
2022/03/27 15:16:52;;;;;;;2.80;1.20;;;;;;;21.18;15.03;101324.39;2250536;86;25716;-73
2022/03/27 15:20:25;;;;;;;2.10;0.95;;;;;;;20.69;15.11;101316.66;2214416;87;27394;-71
2022/03/27 15:23:46;;;;;;;2.30;0.98;;;;;;;20.24;15.62;101314.95;2235345;87;25372;-71
2022/03/27 15:27:10;;;;;;;2.22;1.32;;;;;;;19.91;15.80;101310.55;2202792;87;26500;-71
2022/03/27 15:30:30;;;;;;;4.17;0.90;;;;;;;19.72;16.21;101313.64;2163283;89;25865;-72
2022/03/27 15:37:27;;;;;;;2.47;1.10;;;;;;;19.32;16.58;101313.09;2011646;96;25903;-74
2022/03/27 15:40:54;;;;;;;1.60;1.05;;;;;;;19.10;16.63;101304.64;2016872;96;26463;-74
2022/03/27 15:44:20;;;;;;;3.47;1.30;;;;;;;18.84;16.69;101302.80;2024019;95;25753;-73
2022/03/27 15:51:31;;;;;;;14.03;4.78;;;;;;;18.97;21.83;101301.11;1893019;102;25887;-75
2022/03/27 15:55:03;;;;;;;14.70;4.30;;;;;;;19.45;22.62;101296.82;1890270;102;26019;-77
2022/03/27 15:58:30;;;;;;;17.60;4.80;;;;;;;19.59;23.24;101296.39;1910463;103;25983;-76
2022/03/27 16:02:04;;;;;;;13.20;4.25;;;;;;;19.65;23.50;101282.34;1903405;103;25749;-78
2022/03/27 16:05:27;;;;;;;5.80;3.33;;;;;;;19.65;23.72;101278.81;1899005;102;25904;-77
2022/03/27 16:09:02;;;;;;;9.43;3.42;;;;;;;19.63;23.77;101282.77;1849306;105;26533;-76
2022/03/27 16:12:25;;;;;;;10.45;2.98;;;;;;;19.57;23.71;101271.72;1853494;104;25828;-78
2022/03/27 16:15:48;;;;;;;6.03;3.02;;;;;;;19.51;23.71;101264.22;1876713;104;25841;-75
2022/03/27 16:19:28;;;;;;;6.45;2.42;;;;;;;19.43;23.63;101267.28;1888017;100;25959;-77
2022/03/27 16:22:54;;;;;;;6.37;2.15;;;;;;;19.34;23.65;101254.50;1900078;103;25745;-81
2022/03/27 16:26:26;;;;;;;3.05;1.92;;;;;;;19.26;23.62;101254.91;1906881;100;26407;-78
2022/03/27 16:29:57;;;;;;;5.47;2.55;;;;;;;19.18;23.55;101251.83;1924079;101;26378;-79
2022/03/27 16:33:40;;;;;;;3.70;1.67;;;;;;;19.10;23.62;101250.05;1905440;102;25978;-81
2022/03/27 16:37:01;;;;;;;2.70;1.52;;;;;;;19.03;23.66;101246.05;1835831;106;25861;-78
2022/03/27 16:40:43;;;;;;;;;;;;;;;;;;;;;
2022/03/27 16:44:12;;;;;;;;;;;;;;;;;;;;;
2022/03/27 16:47:52;;;;;;;2.58;1.70;;;;;;;18.81;23.91;101232.78;1819872;107;26005;-77
2022/03/27 16:51:25;;;;;;;2.50;1.42;;;;;;;18.70;24.02;101227.88;1815932;107;25809;-77
2022/03/27 16:55:01;;;;;;;2.42;1.60;;;;;;;18.58;24.12;101231.33;1824965;107;25900;-76
2022/03/27 16:58:38;;;;;;;2.85;1.98;;;;;;;18.47;24.22;101224.25;1833026;104;25788;-78
2022/03/27 17:01:59;;;;;;;3.15;1.42;;;;;;;18.37;24.33;101222.00;1838897;104;25814;-79
2022/03/27 17:05:35;;;;;;;4.00;2.05;;;;;;;18.26;24.39;101221.95;1895057;100;25909;-77
2022/03/27 17:09:11;;;;;;;4.62;2.08;;;;;;;18.12;24.56;101225.83;1939611;101;26380;-76
2022/03/27 17:12:56;;;;;;;5.50;2.00;;;;;;;18.04;24.54;101222.69;1965037;99;25778;-75
2022/03/27 17:16:23;;;;;;;2.45;1.50;;;;;;;17.95;24.74;101222.17;1964642;100;25857;-75
2022/03/27 17:19:46;;;;;;;7.08;1.87;;;;;;;17.83;24.79;101216.39;1965899;100;25932;-78
2022/03/27 17:37:07;;;;;;;3.10;1.82;;;;;;;17.32;25.22;101197.94;2495713;79;31326;-77
2022/03/27 17:40:40;;;;;;;5.00;1.70;;;;;;;17.17;25.28;101200.41;2368747;81;25883;-76
2022/03/27 17:44:14;;;;;;;5.83;2.30;;;;;;;17.09;25.32;101208.69;2367291;83;25866;-77
2022/03/27 17:47:53;;;;;;;3.65;1.95;;;;;;;17.03;25.41;101216.52;2366712;83;25958;-76
2022/03/27 17:51:21;;;;;;;3.17;2.20;;;;;;;16.97;25.44;101210.30;2367798;83;25855;-77
2022/03/27 17:54:56;;;;;;;;;;;;;;;;;;;;;
2022/03/27 17:58:25;;;;;;;2.92;2.00;;;;;;;16.85;25.60;101206.24;2365269;83;25715;-76
2022/03/27 18:01:48;;;;;;;5.65;2.08;;;;;;;16.75;25.72;101205.25;2365064;83;25719;-78